Quinter, Kansas
Current Conditions -  °F | °C
As of 7:11 AM on Friday 24 Oct 2014 (Local Time) from KHLC Reporting Station
Haze Haze  
Wind Chill: 49°   Ceiling: Unl
Heat Index: 49°   Visibility: 0.75mi
Dew Point: 48°   Wind: 3mph
Humidity: 97%   Direction: 250°WSW
Pressure: 30.01"   Gusts: NA
Location:  39.07°N, 100.23°W
Report Text: KHLC 241211Z AUTO 25003KT 3/4SM BR CLR 09/09 A3001 RMK AO2 T00940089
Loading
Personal Weather Stations






























Interactive Weather Map
Tropical Storm Tracking
New forecast layout! Learn more

10-Day Weather Forecast

Advertisements
Track Severe Weather on mobile